Time;durP1;ratioP1;P1;durP2;ratioP2;P2;SDS_P1;SDS_P2;PMS_P1;PMS_P2;Temp;Humidity;BMP_temperature;BMP_pressure;BME280_temperature;BME280_humidity;BME280_pressure;Samples;Min_cycle;Max_cycle;Signal;HPM_P1;HPM_P2
2021/05/30 00:00:37;;;;;;;23.38;16.63;;;15.30;99.90;;;;;;5016371;28;20412;-73
2021/05/30 00:03:04;;;;;;;24.25;17.63;;;15.30;99.90;;;;;;5012001;28;20041;-73
2021/05/30 00:05:30;;;;;;;23.15;16.17;;;15.20;99.90;;;;;;5013809;28;20414;-73
2021/05/30 00:07:56;;;;;;;25.08;17.27;;;15.20;99.90;;;;;;5019174;28;20476;-74
2021/05/30 00:10:22;;;;;;;25.73;16.02;;;15.10;99.90;;;;;;5014618;28;20030;-73
2021/05/30 00:12:48;;;;;;;21.85;15.52;;;15.10;99.90;;;;;;5012880;28;20034;-73
2021/05/30 00:15:14;;;;;;;24.60;17.38;;;15.00;99.90;;;;;;5016554;28;20382;-73
2021/05/30 00:17:40;;;;;;;22.20;16.48;;;15.00;99.90;;;;;;5022685;28;20022;-73
2021/05/30 00:20:08;;;;;;;24.70;17.58;;;15.00;99.90;;;;;;5020073;28;20034;-74
2021/05/30 00:22:34;;;;;;;27.80;18.05;;;15.00;99.90;;;;;;5019210;28;20102;-73
2021/05/30 00:25:00;;;;;;;21.65;16.27;;;15.00;99.90;;;;;;5017101;28;20116;-74
2021/05/30 00:27:26;;;;;;;22.98;16.73;;;15.00;99.90;;;;;;5025829;28;20026;-73
2021/05/30 00:29:53;;;;;;;31.77;17.33;;;14.90;99.90;;;;;;5025076;28;20364;-73
2021/05/30 00:32:19;;;;;;;24.30;16.75;;;15.00;99.90;;;;;;5023885;28;20026;-74
2021/05/30 00:34:45;;;;;;;25.17;17.80;;;15.00;99.90;;;;;;5025896;28;20029;-73
2021/05/30 00:37:10;;;;;;;27.50;17.48;;;14.90;99.90;;;;;;5020392;28;20029;-73
2021/05/30 00:39:36;;;;;;;22.83;16.33;;;14.90;99.90;;;;;;5024410;28;20124;-73
2021/05/30 00:42:02;;;;;;;21.05;15.77;;;14.80;99.90;;;;;;5021610;28;20026;-73
2021/05/30 00:44:29;;;;;;;23.67;17.27;;;14.80;99.90;;;;;;5019044;28;20025;-73
2021/05/30 00:46:57;;;;;;;23.48;18.08;;;14.80;99.90;;;;;;5023324;28;20102;-73
2021/05/30 00:49:24;;;;;;;24.58;18.05;;;14.80;99.90;;;;;;5020715;28;20478;-73
2021/05/30 00:51:51;;;;;;;21.90;17.98;;;14.70;99.90;;;;;;5024701;28;20104;-73
2021/05/30 00:54:17;;;;;;;24.38;17.85;;;14.70;99.90;;;;;;5019640;28;20362;-73
2021/05/30 00:56:44;;;;;;;25.67;18.08;;;14.70;99.90;;;;;;5018782;28;20056;-73
2021/05/30 00:59:13;;;;;;;27.98;19.02;;;14.60;99.90;;;;;;5018426;28;20025;-73
2021/05/30 01:01:40;;;;;;;26.10;19.08;;;14.60;99.90;;;;;;5018158;28;20025;-73
2021/05/30 01:04:06;;;;;;;23.17;18.73;;;14.60;99.90;;;;;;5019054;28;20033;-73
2021/05/30 01:06:33;;;;;;;26.23;18.23;;;14.60;99.90;;;;;;5016492;28;20470;-73
2021/05/30 01:09:01;;;;;;;24.08;17.55;;;14.70;99.90;;;;;;5025223;28;20543;-73
2021/05/30 01:11:27;;;;;;;25.40;17.50;;;14.60;99.90;;;;;;5023526;28;20017;-73
2021/05/30 01:13:54;;;;;;;22.20;17.90;;;14.60;99.90;;;;;;5018296;28;20129;-73
2021/05/30 01:16:21;;;;;;;25.10;17.50;;;14.60;99.90;;;;;;5023948;28;20020;-74
2021/05/30 01:18:57;;;;;;;26.77;18.77;;;14.60;99.90;;;;;;5024732;28;20095;-74
2021/05/30 01:21:24;;;;;;;25.60;18.98;;;14.50;99.90;;;;;;5029884;28;20097;-74
2021/05/30 01:23:52;;;;;;;23.83;18.92;;;14.50;99.90;;;;;;5018197;28;20026;-73
2021/05/30 01:26:18;;;;;;;20.13;16.52;;;14.40;99.90;;;;;;5019885;28;20029;-73
2021/05/30 01:28:44;;;;;;;27.10;18.67;;;14.40;99.90;;;;;;5025084;28;20397;-73
2021/05/30 01:31:10;;;;;;;28.17;17.67;;;14.40;99.90;;;;;;5016987;28;20033;-73
2021/05/30 01:33:35;;;;;;;23.42;17.98;;;14.30;99.90;;;;;;5012772;28;20429;-72
2021/05/30 01:36:01;;;;;;;23.08;16.63;;;14.30;99.90;;;;;;5019385;28;20033;-73
2021/05/30 01:38:27;;;;;;;25.25;17.75;;;14.30;99.90;;;;;;5018523;28;20374;-74
2021/05/30 01:40:53;;;;;;;26.20;18.00;;;14.30;99.90;;;;;;5016878;28;20041;-73
2021/05/30 01:43:18;;;;;;;26.40;18.30;;;14.30;99.90;;;;;;5015689;28;20075;-73
2021/05/30 01:45:44;;;;;;;26.25;18.52;;;14.20;99.90;;;;;;5019790;28;20073;-73
2021/05/30 01:48:10;;;;;;;23.05;17.55;;;14.20;99.90;;;;;;5019025;28;20029;-74
2021/05/30 01:50:36;;;;;;;24.70;17.95;;;14.10;99.90;;;;;;5016882;28;20054;-74
2021/05/30 01:53:07;;;;;;;25.00;18.10;;;14.10;99.90;;;;;;5018243;28;20054;-73
2021/05/30 01:58:13;;;;;;;22.52;18.02;;;14.10;99.90;;;;;;5022438;28;20374;-73
2021/05/30 02:00:39;;;;;;;25.65;18.67;;;14.00;99.90;;;;;;5018826;28;20025;-74
2021/05/30 02:03:06;;;;;;;25.25;18.70;;;14.00;99.90;;;;;;5014080;28;20071;-73
2021/05/30 02:05:32;;;;;;;26.83;19.27;;;14.00;99.90;;;;;;5021715;28;20033;-73
2021/05/30 02:08:00;;;;;;;25.55;18.33;;;14.00;99.90;;;;;;5021152;28;20386;-74
2021/05/30 02:10:25;;;;;;;28.60;19.98;;;14.00;99.90;;;;;;5019051;28;20105;-74
2021/05/30 02:12:54;;;;;;;30.63;18.33;;;13.90;99.90;;;;;;5016790;28;20546;-74
2021/05/30 02:15:20;;;;;;;27.08;17.70;;;13.90;99.90;;;;;;5015250;28;20562;-74
2021/05/30 02:17:47;;;;;;;23.15;17.98;;;13.90;99.90;;;;;;5017775;28;20029;-73
2021/05/30 02:20:14;;;;;;;26.50;19.00;;;13.90;99.90;;;;;;5017285;28;20028;-73
2021/05/30 02:22:40;;;;;;;22.00;17.35;;;13.90;99.90;;;;;;5018088;28;20747;-73
2021/05/30 02:25:08;;;;;;;25.35;17.95;;;13.90;99.90;;;;;;5017840;28;20093;-74
2021/05/30 02:27:34;;;;;;;26.75;17.63;;;13.90;99.90;;;;;;5018205;28;20041;-74
2021/05/30 02:30:00;;;;;;;31.70;19.52;;;13.80;99.90;;;;;;5019461;28;20021;-74
2021/05/30 02:32:25;;;;;;;24.95;17.73;;;13.80;99.90;;;;;;5015712;28;20087;-74
2021/05/30 02:34:51;;;;;;;26.00;19.60;;;13.80;99.90;;;;;;5018854;28;20604;-74
2021/05/30 02:37:18;;;;;;;27.88;19.30;;;13.70;99.90;;;;;;5019634;28;20385;-73
2021/05/30 02:39:45;;;;;;;23.92;17.52;;;13.70;99.90;;;;;;5014185;28;20037;-74
2021/05/30 02:42:12;;;;;;;28.58;18.17;;;13.70;99.90;;;;;;5020905;28;20032;-74
2021/05/30 02:44:38;;;;;;;24.65;18.33;;;13.70;99.90;;;;;;5016957;28;20482;-74
2021/05/30 02:47:05;;;;;;;27.00;18.15;;;13.80;99.90;;;;;;5019532;28;20013;-74
2021/05/30 02:49:32;;;;;;;26.52;18.63;;;13.70;99.90;;;;;;5018836;28;20402;-72
2021/05/30 02:51:58;;;;;;;24.60;17.98;;;13.60;99.90;;;;;;5016200;28;20026;-73
2021/05/30 02:54:23;;;;;;;23.15;16.35;;;13.60;99.90;;;;;;5024063;28;20551;-74
2021/05/30 02:56:49;;;;;;;24.38;18.65;;;13.50;99.90;;;;;;5016322;28;20026;-74
2021/05/30 02:59:14;;;;;;;26.42;18.35;;;13.50;99.90;;;;;;5019036;28;20025;-73
2021/05/30 03:01:40;;;;;;;24.30;17.23;;;13.50;99.90;;;;;;5015837;28;20447;-73
2021/05/30 03:04:06;;;;;;;22.67;16.73;;;13.50;99.90;;;;;;5015941;28;20026;-73
2021/05/30 03:06:32;;;;;;;22.27;16.35;;;13.50;99.90;;;;;;5015826;28;20030;-74
2021/05/30 03:08:59;;;;;;;22.45;16.73;;;13.40;99.90;;;;;;5021892;28;20058;-73
2021/05/30 03:11:25;;;;;;;24.05;16.13;;;13.50;99.90;;;;;;5015751;28;20121;-74
2021/05/30 03:13:52;;;;;;;23.48;17.42;;;13.40;99.90;;;;;;5015519;28;20046;-73
2021/05/30 03:16:18;;;;;;;25.35;17.73;;;13.40;99.90;;;;;;5014790;28;20478;-73
2021/05/30 03:18:43;;;;;;;26.35;18.75;;;13.40;99.90;;;;;;5015246;28;20037;-73
2021/05/30 03:21:09;;;;;;;21.98;16.23;;;13.40;99.90;;;;;;5016468;28;20025;-73
2021/05/30 03:23:35;;;;;;;25.73;18.08;;;13.40;99.90;;;;;;5013992;28;20037;-74
2021/05/30 03:26:01;;;;;;;26.83;17.98;;;13.40;99.90;;;;;;5018800;28;20087;-72
2021/05/30 03:28:27;;;;;;;27.10;18.65;;;13.30;99.90;;;;;;5017391;28;20463;-74
2021/05/30 03:30:53;;;;;;;27.45;17.40;;;13.20;99.90;;;;;;5018268;28;20033;-74
2021/05/30 03:33:18;;;;;;;24.25;17.17;;;13.30;99.90;;;;;;5015542;28;20044;-73
2021/05/30 03:35:45;;;;;;;25.95;17.90;;;13.30;99.90;;;;;;5015912;28;20492;-74
2021/05/30 03:38:14;;;;;;;27.33;18.10;;;13.30;99.90;;;;;;5017678;28;20061;-73
2021/05/30 03:43:08;;;;;;;26.02;18.15;;;13.20;99.90;;;;;;5013904;28;20045;-73
2021/05/30 03:45:34;;;;;;;27.38;18.00;;;13.20;99.90;;;;;;5018244;28;20040;-73
2021/05/30 03:48:00;;;;;;;23.63;18.15;;;13.10;99.90;;;;;;5014627;28;20029;-72
2021/05/30 03:50:26;;;;;;;25.17;17.92;;;13.10;99.90;;;;;;5023608;28;20018;-73
2021/05/30 03:52:52;;;;;;;24.92;18.45;;;13.20;99.90;;;;;;5015079;28;20060;-73
2021/05/30 03:55:19;;;;;;;32.90;19.30;;;13.20;99.90;;;;;;5017351;28;20060;-73
2021/05/30 03:57:46;;;;;;;26.38;18.05;;;13.10;99.90;;;;;;5017583;28;20437;-72
2021/05/30 04:00:17;;;;;;;29.33;18.67;;;13.00;99.90;;;;;;5018195;28;20025;-72
2021/05/30 04:02:43;;;;;;;27.08;18.17;;;13.10;99.90;;;;;;5015504;28;20128;-72
2021/05/30 04:05:10;;;;;;;28.88;19.80;;;13.10;99.90;;;;;;5022336;28;20026;-73
2021/05/30 04:07:36;;;;;;;33.13;19.45;;;13.10;99.90;;;;;;5014931;28;20053;-72
2021/05/30 04:10:07;;;;;;;27.75;19.75;;;13.00;99.90;;;;;;5014546;28;20018;-72
2021/05/30 04:12:33;;;;;;;27.70;18.80;;;13.00;99.90;;;;;;5017883;28;20094;-73
2021/05/30 04:14:59;;;;;;;29.33;18.38;;;13.00;99.90;;;;;;5017440;28;20116;-73
2021/05/30 04:17:25;;;;;;;30.30;19.65;;;13.00;99.90;;;;;;5017832;28;20097;-72
2021/05/30 04:19:51;;;;;;;28.45;18.35;;;12.90;99.90;;;;;;5012412;28;20497;-73
2021/05/30 04:22:17;;;;;;;27.23;18.83;;;12.90;99.90;;;;;;5017086;28;20018;-73
2021/05/30 04:24:42;;;;;;;28.17;19.23;;;12.90;99.90;;;;;;5014317;28;21119;-73
2021/05/30 04:27:08;;;;;;;29.77;18.88;;;13.00;99.90;;;;;;5017425;28;20030;-73
2021/05/30 04:29:33;;;;;;;31.20;19.95;;;13.00;99.90;;;;;;5017527;28;20521;-73
2021/05/30 04:32:02;;;;;;;24.45;17.92;;;13.00;99.90;;;;;;5018918;28;20021;-73
2021/05/30 04:34:28;;;;;;;26.95;18.80;;;13.00;99.90;;;;;;5021368;28;20042;-73
2021/05/30 04:36:54;;;;;;;31.00;18.73;;;13.00;99.90;;;;;;5016903;28;20022;-72
2021/05/30 04:39:19;;;;;;;27.90;18.10;;;13.00;99.90;;;;;;5017960;28;20033;-73
2021/05/30 04:41:45;;;;;;;29.65;19.90;;;13.00;99.90;;;;;;5012724;28;20730;-73
2021/05/30 04:44:10;;;;;;;30.75;20.52;;;12.90;99.90;;;;;;5016499;28;20390;-73
2021/05/30 04:46:36;;;;;;;28.70;20.05;;;13.00;99.90;;;;;;5015647;28;20141;-72
2021/05/30 04:49:02;;;;;;;34.28;21.45;;;13.00;99.90;;;;;;5014131;28;20021;-73
2021/05/30 04:51:27;;;;;;;28.23;20.20;;;12.90;99.90;;;;;;5015715;28;20029;-72
2021/05/30 04:53:55;;;;;;;28.88;20.55;;;12.90;99.90;;;;;;5014132;28;20033;-73
2021/05/30 04:56:22;;;;;;;29.40;21.25;;;13.00;99.90;;;;;;5017821;28;20044;-73
2021/05/30 04:58:48;;;;;;;31.08;19.67;;;13.00;99.90;;;;;;5014804;28;20039;-73
2021/05/30 05:01:14;;;;;;;28.35;19.65;;;13.10;99.90;;;;;;5013615;28;20112;-73
2021/05/30 05:03:40;;;;;;;30.33;21.75;;;13.10;99.90;;;;;;5019981;28;20045;-73
2021/05/30 05:06:06;;;;;;;27.92;19.13;;;13.00;99.90;;;;;;5020596;28;20029;-74
2021/05/30 05:08:32;;;;;;;34.67;22.75;;;13.00;99.90;;;;;;5021469;28;20025;-73
2021/05/30 05:10:58;;;;;;;31.55;20.42;;;13.10;99.90;;;;;;5020914;28;20025;-72
2021/05/30 05:13:24;;;;;;;34.33;21.30;;;13.00;99.90;;;;;;5020227;28;20033;-74
2021/05/30 05:15:51;;;;;;;32.88;21.48;;;13.10;99.90;;;;;;5015944;28;20038;-71
2021/05/30 05:18:22;;;;;;;33.20;21.88;;;13.10;99.90;;;;;;5020313;28;20022;-73
2021/05/30 05:20:47;;;;;;;37.17;23.08;;;13.20;99.90;;;;;;5023330;28;20104;-72
2021/05/30 05:23:19;;;;;;;35.72;22.40;;;13.20;99.90;;;;;;5017393;28;20112;-73
2021/05/30 05:25:51;;;;;;;31.77;22.17;;;13.20;99.90;;;;;;5017424;28;20026;-73
2021/05/30 05:28:18;;;;;;;35.63;23.23;;;13.20;99.90;;;;;;5018348;28;20026;-73
2021/05/30 05:30:44;;;;;;;32.53;21.70;;;13.30;99.90;;;;;;5020667;28;20025;-74
2021/05/30 05:33:09;;;;;;;35.95;23.38;;;13.40;99.90;;;;;;5016936;28;20048;-74
2021/05/30 05:35:35;;;;;;;36.78;22.60;;;13.30;99.90;;;;;;5019819;28;20073;-74
2021/05/30 05:38:01;;;;;;;37.25;23.38;;;13.40;99.90;;;;;;5016846;28;20021;-74
2021/05/30 05:40:28;;;;;;;35.17;24.00;;;13.40;99.90;;;;;;5021060;28;20041;-74
2021/05/30 05:42:54;;;;;;;39.05;26.20;;;13.40;99.90;;;;;;5019762;28;20096;-74
2021/05/30 05:45:20;;;;;;;36.75;24.40;;;13.40;99.90;;;;;;5017384;28;20542;-73
2021/05/30 05:47:46;;;;;;;38.95;24.80;;;13.40;99.90;;;;;;5018667;28;20045;-73
2021/05/30 05:50:16;;;;;;;32.60;22.40;;;13.50;99.90;;;;;;5020646;28;20069;-73
2021/05/30 05:52:43;;;;;;;36.60;23.25;;;13.60;99.90;;;;;;5016687;28;20045;-72
2021/05/30 05:55:11;;;;;;;38.60;24.63;;;13.60;99.90;;;;;;5016735;28;20037;-74
2021/05/30 05:57:38;;;;;;;36.92;23.88;;;13.60;99.90;;;;;;5019684;28;20025;-73
2021/05/30 06:00:05;;;;;;;36.83;24.23;;;13.60;99.90;;;;;;5014281;28;20065;-74
2021/05/30 06:02:31;;;;;;;40.83;27.38;;;13.70;99.90;;;;;;5023237;28;20030;-75
2021/05/30 06:04:57;;;;;;;35.58;24.63;;;13.70;99.90;;;;;;5017810;28;20030;-73
2021/05/30 06:07:23;;;;;;;37.95;23.35;;;13.70;99.90;;;;;;5016562;28;20041;-73
2021/05/30 06:09:48;;;;;;;34.90;23.98;;;13.60;99.90;;;;;;5020002;28;20030;-73
2021/05/30 06:12:14;;;;;;;37.90;25.92;;;13.70;99.90;;;;;;5017419;28;20032;-72
2021/05/30 06:14:40;;;;;;;44.42;27.23;;;13.70;99.90;;;;;;5022651;28;20390;-73
2021/05/30 06:17:06;;;;;;;35.88;25.45;;;13.70;99.90;;;;;;5017665;28;20026;-73
2021/05/30 06:19:32;;;;;;;39.90;26.83;;;13.60;99.90;;;;;;5017385;28;20037;-73
2021/05/30 06:21:58;;;;;;;41.03;25.63;;;13.70;99.90;;;;;;5018318;28;20359;-72
2021/05/30 06:24:23;;;;;;;39.33;25.90;;;13.80;99.90;;;;;;5022765;28;20482;-73
2021/05/30 06:26:49;;;;;;;40.90;26.17;;;13.90;99.90;;;;;;5018207;28;20040;-74
2021/05/30 06:29:14;;;;;;;40.08;25.63;;;13.90;99.90;;;;;;5017113;28;20032;-73
2021/05/30 06:31:40;;;;;;;38.90;27.15;;;13.90;99.90;;;;;;5023151;28;20022;-74
2021/05/30 06:34:08;;;;;;;40.33;25.55;;;14.00;99.90;;;;;;5020069;28;20037;-73
2021/05/30 06:36:33;;;;;;;39.15;25.98;;;14.00;99.90;;;;;;5017216;28;20076;-74
2021/05/30 06:38:59;;;;;;;38.00;25.48;;;14.10;99.90;;;;;;5014136;28;20025;-74
2021/05/30 06:41:24;;;;;;;38.47;25.85;;;14.30;99.90;;;;;;5020606;28;20049;-73
2021/05/30 06:43:52;;;;;;;41.45;26.95;;;14.40;99.90;;;;;;5018133;28;20103;-74
2021/05/30 06:46:18;;;;;;;40.22;25.67;;;14.60;99.90;;;;;;5017227;28;20017;-74
2021/05/30 06:48:44;;;;;;;36.42;26.20;;;14.60;99.90;;;;;;5016335;28;20088;-74
2021/05/30 06:51:13;;;;;;;37.35;25.15;;;14.70;99.90;;;;;;5018042;28;20046;-73
2021/05/30 06:53:39;;;;;;;37.88;25.58;;;14.80;99.90;;;;;;5021627;28;20032;-74
2021/05/30 06:56:05;;;;;;;40.20;25.52;;;14.90;99.90;;;;;;5024013;28;20053;-74
2021/05/30 06:58:31;;;;;;;40.78;27.10;;;15.00;99.90;;;;;;5018904;28;20083;-73
2021/05/30 07:00:56;;;;;;;39.60;26.23;;;15.00;99.90;;;;;;5015389;28;20289;-73
2021/05/30 07:03:22;;;;;;;36.70;24.52;;;15.10;99.90;;;;;;5019615;28;20022;-73
2021/05/30 07:05:48;;;;;;;34.83;25.55;;;15.30;99.90;;;;;;5016171;28;20037;-72
2021/05/30 07:08:13;;;;;;;36.83;26.67;;;15.30;99.90;;;;;;5015108;28;20485;-72
2021/05/30 07:10:39;;;;;;;39.85;26.88;;;15.40;99.90;;;;;;5019399;28;20394;-72
2021/05/30 07:13:04;;;;;;;39.85;27.10;;;15.50;99.90;;;;;;5016738;28;20033;-72
2021/05/30 07:15:30;;;;;;;35.60;24.85;;;15.60;99.90;;;;;;5014707;28;20050;-72
2021/05/30 07:17:56;;;;;;;39.22;26.58;;;15.80;99.90;;;;;;5018209;28;21061;-73
2021/05/30 07:20:22;;;;;;;36.97;26.00;;;15.90;99.90;;;;;;5015362;28;20034;-73
2021/05/30 07:22:47;;;;;;;39.05;26.50;;;16.10;99.90;;;;;;5019107;28;20029;-73
2021/05/30 07:25:14;;;;;;;36.10;26.90;;;16.20;99.90;;;;;;5016213;28;20065;-73
2021/05/30 07:27:39;;;;;;;34.30;24.48;;;16.30;99.90;;;;;;5021235;28;20100;-71
2021/05/30 07:30:07;;;;;;;37.50;26.83;;;16.40;99.90;;;;;;5017956;28;20156;-73
2021/05/30 07:32:33;;;;;;;35.92;25.55;;;16.50;99.90;;;;;;5019103;28;20083;-72
2021/05/30 07:34:59;;;;;;;34.72;26.13;;;16.60;99.90;;;;;;5013123;28;20041;-71
2021/05/30 07:37:25;;;;;;;33.10;23.45;;;16.70;99.90;;;;;;5019431;28;20022;-71
2021/05/30 07:39:50;;;;;;;37.60;25.92;;;16.70;99.90;;;;;;5014184;28;20034;-72
2021/05/30 07:42:16;;;;;;;34.60;23.08;;;16.80;99.90;;;;;;5018766;28;20033;-71
2021/05/30 07:44:42;;;;;;;36.75;26.35;;;17.00;99.90;;;;;;5022432;28;20032;-72
2021/05/30 07:47:07;;;;;;;33.45;24.98;;;17.00;99.90;;;;;;5014907;28;20066;-72
2021/05/30 07:49:33;;;;;;;38.72;24.80;;;17.00;99.90;;;;;;5016183;28;20080;-71
2021/05/30 07:52:00;;;;;;;37.28;25.17;;;17.00;99.90;;;;;;5016350;28;20025;-72
2021/05/30 07:54:26;;;;;;;35.65;25.20;;;17.00;99.90;;;;;;5020745;28;20069;-72
2021/05/30 07:56:52;;;;;;;34.28;24.70;;;17.10;99.90;;;;;;5018687;28;20052;-71
2021/05/30 07:59:18;;;;;;;33.20;22.13;;;17.30;99.90;;;;;;5017154;28;20069;-71
2021/05/30 08:01:44;;;;;;;31.33;23.08;;;17.40;99.90;;;;;;5017067;28;20025;-72
2021/05/30 08:04:09;;;;;;;35.40;24.40;;;17.50;99.90;;;;;;5014091;28;20088;-73
2021/05/30 08:06:35;;;;;;;27.08;20.95;;;17.50;99.90;;;;;;5016841;28;20108;-73
2021/05/30 08:09:01;;;;;;;32.75;23.90;;;17.60;99.90;;;;;;5017762;28;20120;-71
2021/05/30 08:11:28;;;;;;;31.20;24.33;;;17.50;99.90;;;;;;5013275;28;20022;-72
2021/05/30 08:13:54;;;;;;;33.22;25.27;;;17.60;99.90;;;;;;5019275;28;20046;-71
2021/05/30 08:16:20;;;;;;;30.10;23.23;;;17.60;99.90;;;;;;5013109;28;20083;-72
2021/05/30 08:18:46;;;;;;;29.17;21.90;;;17.80;99.90;;;;;;5018423;28;20065;-71
2021/05/30 08:21:12;;;;;;;31.35;22.05;;;17.90;99.90;;;;;;5017100;28;20034;-72
2021/05/30 08:23:40;;;;;;;28.73;21.10;;;18.00;99.90;;;;;;5016207;28;20075;-71
2021/05/30 08:26:07;;;;;;;24.40;18.92;;;18.10;99.90;;;;;;5014907;28;20390;-71
2021/05/30 08:28:33;;;;;;;24.40;18.38;;;18.10;99.90;;;;;;5015150;28;20084;-72
2021/05/30 08:30:59;;;;;;;21.77;16.92;;;18.30;99.90;;;;;;5015773;28;20032;-72
2021/05/30 08:33:24;;;;;;;18.60;14.07;;;18.40;99.90;;;;;;5020178;28;20037;-72
2021/05/30 08:35:50;;;;;;;19.70;15.35;;;18.30;99.90;;;;;;5017900;28;20120;-72
2021/05/30 08:38:16;;;;;;;18.70;14.05;;;18.40;99.90;;;;;;5022298;28;20026;-72
2021/05/30 08:40:42;;;;;;;16.05;12.75;;;18.50;99.90;;;;;;5018388;28;20453;-72
2021/05/30 08:43:10;;;;;;;21.77;15.27;;;18.50;99.90;;;;;;5018150;28;20489;-72
2021/05/30 08:45:36;;;;;;;18.70;12.27;;;18.60;99.90;;;;;;5021215;28;20029;-71
2021/05/30 08:48:02;;;;;;;18.90;14.95;;;18.50;99.90;;;;;;5019860;28;20057;-71
2021/05/30 08:50:28;;;;;;;19.58;13.75;;;18.60;99.90;;;;;;5021601;28;20500;-72
2021/05/30 08:52:54;;;;;;;18.33;14.75;;;18.70;99.90;;;;;;5018237;28;20032;-72
2021/05/30 08:55:19;;;;;;;19.80;15.60;;;18.80;99.90;;;;;;5018629;28;20030;-71
2021/05/30 08:57:45;;;;;;;18.42;14.10;;;19.00;99.90;;;;;;5022730;28;20522;-71
2021/05/30 09:00:13;;;;;;;17.48;14.35;;;19.20;99.90;;;;;;5019995;28;20025;-72
2021/05/30 09:02:39;;;;;;;17.20;13.32;;;19.20;99.90;;;;;;5021955;28;20091;-72
2021/05/30 09:05:10;;;;;;;18.20;13.93;;;19.30;99.90;;;;;;5023692;28;20528;-72
2021/05/30 09:07:42;;;;;;;15.43;12.77;;;19.30;99.90;;;;;;5018226;28;20470;-71
2021/05/30 09:10:23;;;;;;;19.58;15.35;;;19.50;99.90;;;;;;5019209;28;20034;-72
2021/05/30 09:13:11;;;;;;;21.65;12.73;;;19.60;99.90;;;;;;5025443;28;20077;-72
2021/05/30 09:15:52;;;;;;;14.95;12.40;;;19.80;99.90;;;;;;5016453;28;20038;-72
2021/05/30 09:18:22;;;;;;;13.52;12.10;;;19.80;99.90;;;;;;5020007;28;20482;-72
2021/05/30 09:20:52;;;;;;;18.45;14.50;;;20.10;99.90;;;;;;5021228;28;20036;-72
2021/05/30 09:23:32;;;;;;;18.00;14.27;;;20.20;99.90;;;;;;5017525;28;20076;-72
2021/05/30 09:26:10;;;;;;;16.80;12.85;;;20.40;99.90;;;;;;5017285;28;20104;-72
2021/05/30 09:28:38;;;;;;;16.63;11.15;;;20.50;99.90;;;;;;5016311;28;20033;-72
2021/05/30 09:31:05;;;;;;;11.07;9.35;;;20.70;99.90;;;;;;5021275;28;20022;-72
2021/05/30 09:33:31;;;;;;;14.20;9.90;;;20.80;99.90;;;;;;5020372;28;20049;-73
2021/05/30 09:36:00;;;;;;;13.63;11.40;;;21.00;99.90;;;;;;5017061;28;20033;-72
2021/05/30 09:38:37;;;;;;;14.95;11.43;;;21.00;99.90;;;;;;5016376;28;20057;-72
2021/05/30 09:41:04;;;;;;;12.18;9.80;;;21.00;99.90;;;;;;5023846;28;20417;-72
2021/05/30 09:43:36;;;;;;;14.02;10.20;;;21.40;99.90;;;;;;5019355;28;20030;-72
2021/05/30 09:46:08;;;;;;;16.13;11.73;;;21.50;99.90;;;;;;5022509;28;20436;-72
2021/05/30 09:48:39;;;;;;;14.80;11.48;;;21.60;99.80;;;;;;5016717;28;20448;-72
2021/05/30 09:51:28;;;;;;;12.88;10.07;;;21.70;99.90;;;;;;5020440;28;20038;-72
2021/05/30 09:54:01;;;;;;;15.68;9.98;;;21.70;99.30;;;;;;5023475;28;20101;-72
2021/05/30 09:56:39;;;;;;;13.15;9.57;;;21.80;98.40;;;;;;5019713;28;20026;-72
2021/05/30 09:59:07;;;;;;;12.18;9.30;;;21.80;99.90;;;;;;5015264;28;20140;-72
2021/05/30 10:02:08;;;;;;;10.43;9.00;;;21.70;98.40;;;;;;5020450;28;20041;-72
2021/05/30 10:04:36;;;;;;;10.93;9.35;;;21.80;99.30;;;;;;4981700;28;20398;-71
2021/05/30 10:07:04;;;;;;;11.48;10.23;;;22.00;98.90;;;;;;5022493;28;20496;-71
2021/05/30 10:09:30;;;;;;;12.90;9.38;;;22.20;99.90;;;;;;5017596;28;20032;-72
2021/05/30 10:11:57;;;;;;;14.80;10.27;;;22.20;99.60;;;;;;5018164;28;20034;-73
2021/05/30 10:14:27;;;;;;;13.48;9.48;;;22.20;97.70;;;;;;5016905;28;20124;-72
2021/05/30 10:16:53;;;;;;;11.60;8.98;;;22.40;98.70;;;;;;5015791;28;20033;-72
2021/05/30 10:19:33;;;;;;;13.05;10.25;;;22.60;99.90;;;;;;5017577;28;20076;-72
2021/05/30 10:21:59;;;;;;;13.30;9.02;;;22.60;98.20;;;;;;5017175;28;20018;-72
2021/05/30 10:24:26;;;;;;;14.88;10.63;;;22.70;99.90;;;;;;5017998;28;20489;-72
2021/05/30 10:27:15;;;;;;;13.82;9.95;;;23.00;98.10;;;;;;5017909;28;20775;-72
2021/05/30 10:29:41;;;;;;;13.02;10.48;;;22.90;96.90;;;;;;5018281;28;20099;-72
2021/05/30 10:32:19;;;;;;;10.38;8.98;;;22.90;96.70;;;;;;5018728;28;20029;-73
2021/05/30 10:35:09;;;;;;;8.48;7.50;;;23.00;97.40;;;;;;5018081;28;20039;-72
2021/05/30 10:37:44;;;;;;;8.85;6.47;;;23.00;93.60;;;;;;5017007;28;20108;-72
2021/05/30 10:40:24;;;;;;;7.32;6.53;;;23.30;96.00;;;;;;5018494;28;20022;-72
2021/05/30 10:43:11;;;;;;;8.77;5.68;;;23.40;96.80;;;;;;5015813;28;20030;-73
2021/05/30 10:45:55;;;;;;;7.50;6.00;;;23.30;95.00;;;;;;5017065;28;20026;-72
2021/05/30 10:48:21;;;;;;;6.82;5.18;;;23.50;93.80;;;;;;5018448;28;20022;-72
2021/05/30 10:53:44;;;;;;;5.68;5.13;;;23.60;91.80;;;;;;5017322;28;20040;-72
2021/05/30 10:56:17;;;;;;;7.75;4.57;;;23.80;91.50;;;;;;5016908;28;20061;-72
2021/05/30 10:58:44;;;;;;;7.53;5.32;;;23.70;91.90;;;;;;5023248;28;20034;-72
2021/05/30 11:01:33;;;;;;;8.52;6.53;;;23.60;92.40;;;;;;5015012;28;20441;-72
2021/05/30 11:04:25;;;;;;;7.10;6.28;;;23.90;93.30;;;;;;5016231;28;20029;-73
2021/05/30 11:06:57;;;;;;;8.07;4.20;;;23.80;90.70;;;;;;5017625;28;20501;-73
2021/05/30 11:09:23;;;;;;;;;;;23.90;89.50;;;;;;5022291;28;20022;-71
2021/05/30 11:12:28;;;;;;;4.85;4.30;;;23.80;90.10;;;;;;5017197;28;19924;-72
2021/05/30 11:15:10;;;;;;;7.13;5.03;;;24.10;89.60;;;;;;4933084;28;20031;-72
2021/05/30 11:17:50;;;;;;;4.50;3.58;;;23.90;88.60;;;;;;5008579;28;20149;-72
2021/05/30 11:20:21;;;;;;;4.43;3.97;;;24.20;90.10;;;;;;5019267;28;20374;-73
2021/05/30 11:23:01;;;;;;;4.38;3.97;;;24.10;88.90;;;;;;5016340;28;20043;-72
2021/05/30 11:25:48;;;;;;;4.70;3.63;;;24.00;83.90;;;;;;5015014;28;20069;-72
2021/05/30 11:28:19;;;;;;;3.63;3.33;;;24.20;86.00;;;;;;5015703;28;20025;-72
2021/05/30 11:30:49;;;;;;;5.35;4.35;;;24.30;84.10;;;;;;5019207;28;20544;-72
2021/05/30 11:33:46;;;;;;;4.20;3.65;;;24.20;80.80;;;;;;5018129;28;20049;-72
2021/05/30 11:36:19;;;;;;;4.32;3.35;;;24.30;82.70;;;;;;5013601;28;20042;-72
2021/05/30 11:38:54;;;;;;;;;;;24.40;85.60;;;;;;5019782;28;20403;-72
2021/05/30 11:41:31;;;;;;;3.03;2.75;;;24.30;81.10;;;;;;5018416;28;20035;-72
2021/05/30 11:44:02;;;;;;;3.17;2.47;;;24.70;85.40;;;;;;5017634;28;20022;-72
2021/05/30 11:46:29;;;;;;;2.72;2.53;;;24.60;80.90;;;;;;5019405;28;20040;-72
2021/05/30 11:49:00;;;;;;;4.72;2.85;;;24.60;75.30;;;;;;5015341;28;20025;-72
2021/05/30 11:51:42;;;;;;;4.85;3.05;;;24.70;79.40;;;;;;5017347;28;20037;-73
2021/05/30 11:54:08;;;;;;;4.03;3.40;;;25.00;82.20;;;;;;5020834;28;20095;-72
2021/05/30 11:56:38;;;;;;;3.42;2.60;;;24.90;83.10;;;;;;5017598;28;20432;-72
2021/05/30 11:59:03;;;;;;;4.60;2.70;;;24.90;82.70;;;;;;5016503;28;20564;-72
2021/05/30 12:01:42;;;;;;;2.50;2.30;;;24.90;79.00;;;;;;5013726;28;20109;-72
2021/05/30 12:04:21;;;;;;;2.05;1.73;;;24.80;77.90;;;;;;5021473;28;20028;-73
2021/05/30 12:06:46;;;;;;;2.35;2.15;;;25.00;75.80;;;;;;5014493;28;20122;-73
2021/05/30 12:09:13;;;;;;;1.83;1.73;;;25.00;79.70;;;;;;5018927;28;20053;-72
2021/05/30 12:11:40;;;;;;;2.63;2.42;;;25.20;77.40;;;;;;5014059;28;20486;-72
2021/05/30 12:14:05;;;;;;;4.25;3.17;;;25.40;77.40;;;;;;5014742;28;20115;-72
2021/05/30 12:16:31;;;;;;;3.72;2.83;;;25.40;78.90;;;;;;5015021;28;21018;-73
2021/05/30 12:18:59;;;;;;;3.05;2.25;;;25.30;73.40;;;;;;5014545;28;20382;-72
2021/05/30 12:21:28;;;;;;;2.35;2.15;;;25.40;74.70;;;;;;5014224;28;20141;-72
2021/05/30 12:23:53;;;;;;;3.40;3.05;;;25.50;77.10;;;;;;5016039;28;20029;-72
2021/05/30 12:26:20;;;;;;;3.50;2.53;;;25.20;72.20;;;;;;5015870;28;20037;-73
2021/05/30 12:28:49;;;;;;;2.53;2.33;;;25.20;72.60;;;;;;5012699;28;20026;-72
2021/05/30 12:31:16;;;;;;;3.60;2.40;;;25.30;73.20;;;;;;5013450;28;20058;-74
2021/05/30 12:34:06;;;;;;;2.55;1.90;;;25.30;74.00;;;;;;5014053;28;20528;-72
2021/05/30 12:36:38;;;;;;;2.22;2.03;;;25.30;73.10;;;;;;5010625;28;20077;-72
2021/05/30 12:39:11;;;;;;;4.22;2.50;;;25.20;74.50;;;;;;5013144;28;20033;-72
2021/05/30 12:41:40;;;;;;;2.75;2.13;;;25.30;70.00;;;;;;5014463;28;20041;-72
2021/05/30 12:44:10;;;;;;;2.35;2.15;;;25.40;82.30;;;;;;5016308;28;20026;-72